sensor_id;sensor_type;location;lat;lon;timestamp;temperature;humidity
19232;DHT22;9750;48.730;10.294;2023-06-26T00:02:18;19.10;80.90
19232;DHT22;9750;48.730;10.294;2023-06-26T00:04:45;19.10;81.10
19232;DHT22;9750;48.730;10.294;2023-06-26T00:07:13;19.10;81.40
19232;DHT22;9750;48.730;10.294;2023-06-26T00:09:41;19.00;81.60
19232;DHT22;9750;48.730;10.294;2023-06-26T00:12:09;19.00;81.80
19232;DHT22;9750;48.730;10.294;2023-06-26T00:14:36;19.00;81.70
19232;DHT22;9750;48.730;10.294;2023-06-26T00:17:03;18.90;81.80
19232;DHT22;9750;48.730;10.294;2023-06-26T00:19:31;18.90;81.90
19232;DHT22;9750;48.730;10.294;2023-06-26T00:21:58;18.90;81.90
19232;DHT22;9750;48.730;10.294;2023-06-26T00:24:26;18.80;81.70
19232;DHT22;9750;48.730;10.294;2023-06-26T00:26:54;18.80;82.30
19232;DHT22;9750;48.730;10.294;2023-06-26T00:29:22;18.80;83.10
19232;DHT22;9750;48.730;10.294;2023-06-26T00:31:49;18.80;82.90
19232;DHT22;9750;48.730;10.294;2023-06-26T00:34:16;18.70;82.90
19232;DHT22;9750;48.730;10.294;2023-06-26T00:36:43;18.70;83.00
19232;DHT22;9750;48.730;10.294;2023-06-26T00:39:11;18.70;82.70
19232;DHT22;9750;48.730;10.294;2023-06-26T00:41:38;18.60;82.90
19232;DHT22;9750;48.730;10.294;2023-06-26T00:44:07;18.60;82.50
19232;DHT22;9750;48.730;10.294;2023-06-26T00:46:34;18.60;82.40
19232;DHT22;9750;48.730;10.294;2023-06-26T00:49:03;18.50;82.90
19232;DHT22;9750;48.730;10.294;2023-06-26T00:51:31;18.40;83.10
19232;DHT22;9750;48.730;10.294;2023-06-26T00:53:58;18.40;83.20
19232;DHT22;9750;48.730;10.294;2023-06-26T00:59:39;18.30;83.30
19232;DHT22;9750;48.730;10.294;2023-06-26T01:02:07;18.30;83.50
19232;DHT22;9750;48.730;10.294;2023-06-26T01:04:35;18.30;83.40
19232;DHT22;9750;48.730;10.294;2023-06-26T01:07:04;18.20;83.70
19232;DHT22;9750;48.730;10.294;2023-06-26T01:09:34;18.30;83.80
19232;DHT22;9750;48.730;10.294;2023-06-26T01:12:01;18.20;83.80
19232;DHT22;9750;48.730;10.294;2023-06-26T01:14:29;18.20;83.80
19232;DHT22;9750;48.730;10.294;2023-06-26T01:17:00;18.20;84.00
19232;DHT22;9750;48.730;10.294;2023-06-26T01:19:29;18.20;84.60
19232;DHT22;9750;48.730;10.294;2023-06-26T01:22:04;18.20;84.80
19232;DHT22;9750;48.730;10.294;2023-06-26T01:24:44;18.10;85.20
19232;DHT22;9750;48.730;10.294;2023-06-26T01:27:14;18.10;85.40
19232;DHT22;9750;48.730;10.294;2023-06-26T01:29:43;18.10;85.30
19232;DHT22;9750;48.730;10.294;2023-06-26T01:32:11;18.10;85.90
19232;DHT22;9750;48.730;10.294;2023-06-26T01:34:39;18.10;86.10
19232;DHT22;9750;48.730;10.294;2023-06-26T01:37:06;18.00;86.00
19232;DHT22;9750;48.730;10.294;2023-06-26T01:39:33;18.00;85.70
19232;DHT22;9750;48.730;10.294;2023-06-26T01:42:01;18.00;85.40
19232;DHT22;9750;48.730;10.294;2023-06-26T01:44:30;18.00;85.40
19232;DHT22;9750;48.730;10.294;2023-06-26T01:47:02;18.00;85.30
19232;DHT22;9750;48.730;10.294;2023-06-26T01:49:46;17.90;85.50
19232;DHT22;9750;48.730;10.294;2023-06-26T01:52:20;17.90;86.00
19232;DHT22;9750;48.730;10.294;2023-06-26T01:54:56;17.90;86.00
19232;DHT22;9750;48.730;10.294;2023-06-26T01:57:26;17.90;86.50
19232;DHT22;9750;48.730;10.294;2023-06-26T01:59:56;17.80;86.30
19232;DHT22;9750;48.730;10.294;2023-06-26T02:02:25;17.80;86.30
19232;DHT22;9750;48.730;10.294;2023-06-26T02:04:52;17.80;86.70
19232;DHT22;9750;48.730;10.294;2023-06-26T02:07:19;17.80;86.50
19232;DHT22;9750;48.730;10.294;2023-06-26T02:09:47;17.70;86.10
19232;DHT22;9750;48.730;10.294;2023-06-26T02:12:14;17.70;86.30
19232;DHT22;9750;48.730;10.294;2023-06-26T02:14:41;17.60;86.00
19232;DHT22;9750;48.730;10.294;2023-06-26T02:17:10;17.60;86.50
19232;DHT22;9750;48.730;10.294;2023-06-26T02:19:37;17.60;86.90
19232;DHT22;9750;48.730;10.294;2023-06-26T02:22:11;17.50;86.80
19232;DHT22;9750;48.730;10.294;2023-06-26T02:24:38;17.50;87.00
19232;DHT22;9750;48.730;10.294;2023-06-26T02:27:05;17.50;87.20
19232;DHT22;9750;48.730;10.294;2023-06-26T02:29:32;17.50;87.40
19232;DHT22;9750;48.730;10.294;2023-06-26T02:31:59;17.50;87.70
19232;DHT22;9750;48.730;10.294;2023-06-26T02:34:28;17.50;87.90
19232;DHT22;9750;48.730;10.294;2023-06-26T02:36:56;17.40;88.00
19232;DHT22;9750;48.730;10.294;2023-06-26T02:39:24;17.40;88.10
19232;DHT22;9750;48.730;10.294;2023-06-26T02:41:51;17.40;88.20
19232;DHT22;9750;48.730;10.294;2023-06-26T02:44:18;17.40;88.50
19232;DHT22;9750;48.730;10.294;2023-06-26T02:46:46;17.40;88.50
19232;DHT22;9750;48.730;10.294;2023-06-26T02:49:14;17.40;88.50
19232;DHT22;9750;48.730;10.294;2023-06-26T02:51:42;17.40;88.50
19232;DHT22;9750;48.730;10.294;2023-06-26T02:54:10;17.40;88.70
19232;DHT22;9750;48.730;10.294;2023-06-26T02:56:37;17.40;89.00
19232;DHT22;9750;48.730;10.294;2023-06-26T02:59:05;17.40;89.00
19232;DHT22;9750;48.730;10.294;2023-06-26T03:01:32;17.40;89.00
19232;DHT22;9750;48.730;10.294;2023-06-26T03:03:59;17.30;89.30
19232;DHT22;9750;48.730;10.294;2023-06-26T03:06:27;17.30;89.40
19232;DHT22;9750;48.730;10.294;2023-06-26T03:08:56;17.30;89.60
19232;DHT22;9750;48.730;10.294;2023-06-26T03:11:23;17.20;89.70
19232;DHT22;9750;48.730;10.294;2023-06-26T03:13:50;17.20;89.20
19232;DHT22;9750;48.730;10.294;2023-06-26T03:16:17;17.20;88.80
19232;DHT22;9750;48.730;10.294;2023-06-26T03:18:45;17.20;89.30
19232;DHT22;9750;48.730;10.294;2023-06-26T03:21:12;17.10;89.30
19232;DHT22;9750;48.730;10.294;2023-06-26T03:23:39;17.20;89.60
19232;DHT22;9750;48.730;10.294;2023-06-26T03:26:08;17.10;89.80
19232;DHT22;9750;48.730;10.294;2023-06-26T03:28:35;17.10;90.00
19232;DHT22;9750;48.730;10.294;2023-06-26T03:31:02;17.10;90.00
19232;DHT22;9750;48.730;10.294;2023-06-26T03:33:30;17.00;90.00
19232;DHT22;9750;48.730;10.294;2023-06-26T03:35:57;17.00;89.90
19232;DHT22;9750;48.730;10.294;2023-06-26T03:38:24;17.10;89.90
19232;DHT22;9750;48.730;10.294;2023-06-26T03:40:52;17.00;90.00
19232;DHT22;9750;48.730;10.294;2023-06-26T03:43:21;17.10;90.20
19232;DHT22;9750;48.730;10.294;2023-06-26T03:45:48;17.10;90.40
19232;DHT22;9750;48.730;10.294;2023-06-26T03:51:38;17.00;90.00
19232;DHT22;9750;48.730;10.294;2023-06-26T03:54:05;17.00;90.00
19232;DHT22;9750;48.730;10.294;2023-06-26T03:56:32;17.00;89.70
19232;DHT22;9750;48.730;10.294;2023-06-26T03:59:01;17.00;89.50
19232;DHT22;9750;48.730;10.294;2023-06-26T04:01:28;17.10;89.50
19232;DHT22;9750;48.730;10.294;2023-06-26T04:03:55;17.10;89.40
19232;DHT22;9750;48.730;10.294;2023-06-26T04:06:23;17.10;89.90
19232;DHT22;9750;48.730;10.294;2023-06-26T04:08:50;17.10;90.10
19232;DHT22;9750;48.730;10.294;2023-06-26T04:11:17;17.10;90.00
19232;DHT22;9750;48.730;10.294;2023-06-26T04:13:44;17.10;90.20
19232;DHT22;9750;48.730;10.294;2023-06-26T04:16:13;17.10;90.00
19232;DHT22;9750;48.730;10.294;2023-06-26T04:18:41;17.10;90.00
19232;DHT22;9750;48.730;10.294;2023-06-26T04:21:10;17.20;90.00
19232;DHT22;9750;48.730;10.294;2023-06-26T04:23:38;17.20;90.20
19232;DHT22;9750;48.730;10.294;2023-06-26T04:26:06;17.20;90.10
19232;DHT22;9750;48.730;10.294;2023-06-26T04:28:34;17.20;90.20
19232;DHT22;9750;48.730;10.294;2023-06-26T04:31:02;17.30;90.40
19232;DHT22;9750;48.730;10.294;2023-06-26T04:33:31;17.30;90.60
19232;DHT22;9750;48.730;10.294;2023-06-26T04:35:59;17.30;90.60
19232;DHT22;9750;48.730;10.294;2023-06-26T04:38:29;17.40;90.30
19232;DHT22;9750;48.730;10.294;2023-06-26T04:40:56;17.40;90.20
19232;DHT22;9750;48.730;10.294;2023-06-26T04:43:23;17.40;90.30
19232;DHT22;9750;48.730;10.294;2023-06-26T04:45:51;17.40;90.40
19232;DHT22;9750;48.730;10.294;2023-06-26T04:48:18;17.50;90.20
19232;DHT22;9750;48.730;10.294;2023-06-26T04:50:47;17.50;90.40
19232;DHT22;9750;48.730;10.294;2023-06-26T04:53:19;17.50;90.60
19232;DHT22;9750;48.730;10.294;2023-06-26T04:55:47;17.50;91.20
19232;DHT22;9750;48.730;10.294;2023-06-26T04:58:14;17.50;90.70
19232;DHT22;9750;48.730;10.294;2023-06-26T05:00:42;17.50;90.40
19232;DHT22;9750;48.730;10.294;2023-06-26T05:03:09;17.50;90.50
19232;DHT22;9750;48.730;10.294;2023-06-26T05:05:36;17.50;90.40
19232;DHT22;9750;48.730;10.294;2023-06-26T05:08:16;17.50;90.60
19232;DHT22;9750;48.730;10.294;2023-06-26T05:10:43;17.60;90.70
19232;DHT22;9750;48.730;10.294;2023-06-26T05:13:11;17.60;90.50
19232;DHT22;9750;48.730;10.294;2023-06-26T05:15:40;17.60;90.30
19232;DHT22;9750;48.730;10.294;2023-06-26T05:21:45;17.60;90.20
19232;DHT22;9750;48.730;10.294;2023-06-26T05:24:15;17.70;90.30
19232;DHT22;9750;48.730;10.294;2023-06-26T05:26:43;17.80;90.70
19232;DHT22;9750;48.730;10.294;2023-06-26T05:29:11;17.80;91.70
19232;DHT22;9750;48.730;10.294;2023-06-26T05:31:41;17.80;91.80
19232;DHT22;9750;48.730;10.294;2023-06-26T05:34:10;17.90;92.10
19232;DHT22;9750;48.730;10.294;2023-06-26T05:36:39;17.90;92.40
19232;DHT22;9750;48.730;10.294;2023-06-26T05:39:07;17.90;92.40
19232;DHT22;9750;48.730;10.294;2023-06-26T05:41:37;18.00;92.30
19232;DHT22;9750;48.730;10.294;2023-06-26T05:44:04;18.10;92.30
19232;DHT22;9750;48.730;10.294;2023-06-26T05:46:31;18.10;92.20
19232;DHT22;9750;48.730;10.294;2023-06-26T05:48:59;18.20;92.30
19232;DHT22;9750;48.730;10.294;2023-06-26T05:51:27;18.30;92.40
19232;DHT22;9750;48.730;10.294;2023-06-26T05:53:55;18.30;92.40
19232;DHT22;9750;48.730;10.294;2023-06-26T05:56:23;18.40;92.40
19232;DHT22;9750;48.730;10.294;2023-06-26T05:58:52;18.40;92.50
19232;DHT22;9750;48.730;10.294;2023-06-26T06:01:20;18.50;92.50
19232;DHT22;9750;48.730;10.294;2023-06-26T06:03:47;18.60;92.20
19232;DHT22;9750;48.730;10.294;2023-06-26T06:06:14;18.60;92.10
19232;DHT22;9750;48.730;10.294;2023-06-26T06:08:42;18.70;92.30
19232;DHT22;9750;48.730;10.294;2023-06-26T06:11:10;18.70;92.00
19232;DHT22;9750;48.730;10.294;2023-06-26T06:13:37;18.80;92.20
19232;DHT22;9750;48.730;10.294;2023-06-26T06:16:06;18.90;92.00
19232;DHT22;9750;48.730;10.294;2023-06-26T06:18:33;18.90;91.90
19232;DHT22;9750;48.730;10.294;2023-06-26T06:21:01;19.00;91.90
19232;DHT22;9750;48.730;10.294;2023-06-26T06:23:28;19.00;91.90
19232;DHT22;9750;48.730;10.294;2023-06-26T06:25:55;19.10;91.80
19232;DHT22;9750;48.730;10.294;2023-06-26T06:28:22;19.10;91.70
19232;DHT22;9750;48.730;10.294;2023-06-26T06:30:50;19.20;91.90
19232;DHT22;9750;48.730;10.294;2023-06-26T06:33:18;19.30;92.20
19232;DHT22;9750;48.730;10.294;2023-06-26T06:35:46;19.30;91.80
19232;DHT22;9750;48.730;10.294;2023-06-26T06:38:13;19.40;92.20
19232;DHT22;9750;48.730;10.294;2023-06-26T06:40:40;19.50;92.10
19232;DHT22;9750;48.730;10.294;2023-06-26T06:43:07;19.60;91.90
19232;DHT22;9750;48.730;10.294;2023-06-26T06:45:35;19.70;92.00
19232;DHT22;9750;48.730;10.294;2023-06-26T06:48:04;19.70;92.10
19232;DHT22;9750;48.730;10.294;2023-06-26T06:50:33;19.80;92.20
19232;DHT22;9750;48.730;10.294;2023-06-26T06:53:00;19.90;92.00
19232;DHT22;9750;48.730;10.294;2023-06-26T06:55:27;20.00;92.20
19232;DHT22;9750;48.730;10.294;2023-06-26T06:57:55;20.10;92.60
19232;DHT22;9750;48.730;10.294;2023-06-26T07:00:22;20.20;92.60
19232;DHT22;9750;48.730;10.294;2023-06-26T07:02:49;20.30;92.80
19232;DHT22;9750;48.730;10.294;2023-06-26T07:05:17;20.40;92.40
19232;DHT22;9750;48.730;10.294;2023-06-26T07:07:45;20.50;92.00
19232;DHT22;9750;48.730;10.294;2023-06-26T07:10:13;20.60;92.30
19232;DHT22;9750;48.730;10.294;2023-06-26T07:12:41;20.70;92.40
19232;DHT22;9750;48.730;10.294;2023-06-26T07:15:10;20.80;92.60
19232;DHT22;9750;48.730;10.294;2023-06-26T07:20:40;21.00;90.60
19232;DHT22;9750;48.730;10.294;2023-06-26T07:23:09;21.10;90.40
19232;DHT22;9750;48.730;10.294;2023-06-26T07:25:36;21.20;90.70
19232;DHT22;9750;48.730;10.294;2023-06-26T07:28:29;21.30;89.90
19232;DHT22;9750;48.730;10.294;2023-06-26T07:30:56;21.50;90.10
19232;DHT22;9750;48.730;10.294;2023-06-26T07:33:23;21.60;90.30
19232;DHT22;9750;48.730;10.294;2023-06-26T07:35:50;21.70;89.40
19232;DHT22;9750;48.730;10.294;2023-06-26T07:38:19;21.80;86.50
19232;DHT22;9750;48.730;10.294;2023-06-26T07:40:46;21.80;87.00
19232;DHT22;9750;48.730;10.294;2023-06-26T07:43:14;22.00;84.60
19232;DHT22;9750;48.730;10.294;2023-06-26T07:45:41;22.10;85.20
19232;DHT22;9750;48.730;10.294;2023-06-26T07:48:08;22.10;83.00
19232;DHT22;9750;48.730;10.294;2023-06-26T07:50:36;22.20;84.30
19232;DHT22;9750;48.730;10.294;2023-06-26T07:53:03;22.30;83.10
19232;DHT22;9750;48.730;10.294;2023-06-26T07:55:32;22.40;82.00
19232;DHT22;9750;48.730;10.294;2023-06-26T07:58:00;22.40;83.90
19232;DHT22;9750;48.730;10.294;2023-06-26T08:00:28;22.60;81.30
19232;DHT22;9750;48.730;10.294;2023-06-26T08:02:55;22.70;82.50
19232;DHT22;9750;48.730;10.294;2023-06-26T08:05:22;22.70;82.70
19232;DHT22;9750;48.730;10.294;2023-06-26T08:07:50;22.70;83.10
19232;DHT22;9750;48.730;10.294;2023-06-26T08:10:17;22.80;81.80
19232;DHT22;9750;48.730;10.294;2023-06-26T08:12:46;23.00;81.80
19232;DHT22;9750;48.730;10.294;2023-06-26T08:15:14;23.00;81.00
19232;DHT22;9750;48.730;10.294;2023-06-26T08:17:41;23.10;80.90
19232;DHT22;9750;48.730;10.294;2023-06-26T08:20:10;23.10;81.90
19232;DHT22;9750;48.730;10.294;2023-06-26T08:22:37;23.20;82.10
19232;DHT22;9750;48.730;10.294;2023-06-26T08:25:05;23.30;80.10
19232;DHT22;9750;48.730;10.294;2023-06-26T08:27:32;23.40;79.90
19232;DHT22;9750;48.730;10.294;2023-06-26T08:30:01;23.50;79.00
19232;DHT22;9750;48.730;10.294;2023-06-26T08:32:30;23.50;80.30
19232;DHT22;9750;48.730;10.294;2023-06-26T08:34:58;23.60;82.20
19232;DHT22;9750;48.730;10.294;2023-06-26T08:37:25;23.70;80.70
19232;DHT22;9750;48.730;10.294;2023-06-26T08:39:52;23.80;78.80
19232;DHT22;9750;48.730;10.294;2023-06-26T08:42:19;23.90;79.40
19232;DHT22;9750;48.730;10.294;2023-06-26T08:44:47;23.90;79.60
19232;DHT22;9750;48.730;10.294;2023-06-26T08:47:16;24.00;79.00
19232;DHT22;9750;48.730;10.294;2023-06-26T08:49:47;24.10;77.70
19232;DHT22;9750;48.730;10.294;2023-06-26T08:52:23;24.20;78.10
19232;DHT22;9750;48.730;10.294;2023-06-26T08:54:55;24.40;74.70
19232;DHT22;9750;48.730;10.294;2023-06-26T08:57:23;24.40;75.90
19232;DHT22;9750;48.730;10.294;2023-06-26T08:59:52;24.50;75.70
19232;DHT22;9750;48.730;10.294;2023-06-26T09:02:21;24.50;75.90
19232;DHT22;9750;48.730;10.294;2023-06-26T09:04:48;24.60;74.70
19232;DHT22;9750;48.730;10.294;2023-06-26T09:07:16;24.60;73.50
19232;DHT22;9750;48.730;10.294;2023-06-26T09:09:43;24.70;73.80
19232;DHT22;9750;48.730;10.294;2023-06-26T09:12:10;24.70;74.40
19232;DHT22;9750;48.730;10.294;2023-06-26T09:14:38;24.80;75.10
19232;DHT22;9750;48.730;10.294;2023-06-26T09:17:05;24.90;74.30
19232;DHT22;9750;48.730;10.294;2023-06-26T09:19:36;25.00;74.60
19232;DHT22;9750;48.730;10.294;2023-06-26T09:22:04;25.00;74.00
19232;DHT22;9750;48.730;10.294;2023-06-26T09:24:31;25.10;74.30
19232;DHT22;9750;48.730;10.294;2023-06-26T09:26:58;25.20;73.90
19232;DHT22;9750;48.730;10.294;2023-06-26T09:29:26;25.20;72.20
19232;DHT22;9750;48.730;10.294;2023-06-26T09:31:56;25.30;70.80
19232;DHT22;9750;48.730;10.294;2023-06-26T09:34:30;25.30;72.70
19232;DHT22;9750;48.730;10.294;2023-06-26T09:36:59;25.40;71.20
19232;DHT22;9750;48.730;10.294;2023-06-26T09:39:30;25.40;72.20
19232;DHT22;9750;48.730;10.294;2023-06-26T09:41:58;25.50;70.10
19232;DHT22;9750;48.730;10.294;2023-06-26T09:44:27;25.50;69.20
19232;DHT22;9750;48.730;10.294;2023-06-26T09:46:57;25.50;70.30
19232;DHT22;9750;48.730;10.294;2023-06-26T09:49:24;25.60;70.90
19232;DHT22;9750;48.730;10.294;2023-06-26T09:51:53;25.60;72.50
19232;DHT22;9750;48.730;10.294;2023-06-26T09:54:23;25.70;70.80
19232;DHT22;9750;48.730;10.294;2023-06-26T09:56:55;25.80;70.70
19232;DHT22;9750;48.730;10.294;2023-06-26T09:59:23;25.90;70.20
19232;DHT22;9750;48.730;10.294;2023-06-26T10:01:59;25.80;70.40
19232;DHT22;9750;48.730;10.294;2023-06-26T10:04:26;25.90;69.50
19232;DHT22;9750;48.730;10.294;2023-06-26T10:06:56;25.90;68.70
19232;DHT22;9750;48.730;10.294;2023-06-26T10:09:25;25.90;70.40
19232;DHT22;9750;48.730;10.294;2023-06-26T10:11:56;26.00;68.60
19232;DHT22;9750;48.730;10.294;2023-06-26T10:14:26;26.00;68.20
19232;DHT22;9750;48.730;10.294;2023-06-26T10:16:58;26.00;71.20
19232;DHT22;9750;48.730;10.294;2023-06-26T10:19:27;26.10;70.50
19232;DHT22;9750;48.730;10.294;2023-06-26T10:21:55;26.10;69.10
19232;DHT22;9750;48.730;10.294;2023-06-26T10:24:26;26.20;68.90
19232;DHT22;9750;48.730;10.294;2023-06-26T10:26:59;26.20;68.10
19232;DHT22;9750;48.730;10.294;2023-06-26T10:29:29;26.20;69.10
19232;DHT22;9750;48.730;10.294;2023-06-26T10:31:59;26.30;67.40
19232;DHT22;9750;48.730;10.294;2023-06-26T10:34:27;26.30;68.00
19232;DHT22;9750;48.730;10.294;2023-06-26T10:37:01;26.40;68.00
19232;DHT22;9750;48.730;10.294;2023-06-26T10:39:46;26.40;68.10
19232;DHT22;9750;48.730;10.294;2023-06-26T10:42:16;26.50;66.70
19232;DHT22;9750;48.730;10.294;2023-06-26T10:44:45;26.50;66.70
19232;DHT22;9750;48.730;10.294;2023-06-26T10:47:29;26.50;67.00
19232;DHT22;9750;48.730;10.294;2023-06-26T10:49:56;26.60;65.20
19232;DHT22;9750;48.730;10.294;2023-06-26T10:52:26;26.70;65.50
19232;DHT22;9750;48.730;10.294;2023-06-26T10:54:56;26.70;64.40
19232;DHT22;9750;48.730;10.294;2023-06-26T10:57:24;26.70;64.70
19232;DHT22;9750;48.730;10.294;2023-06-26T11:00:09;26.80;66.80
19232;DHT22;9750;48.730;10.294;2023-06-26T11:02:48;26.80;65.50
19232;DHT22;9750;48.730;10.294;2023-06-26T11:05:24;26.90;64.80
19232;DHT22;9750;48.730;10.294;2023-06-26T11:08:06;26.90;66.50
19232;DHT22;9750;48.730;10.294;2023-06-26T11:11:00;26.90;65.50
19232;DHT22;9750;48.730;10.294;2023-06-26T11:13:27;26.90;63.50
19232;DHT22;9750;48.730;10.294;2023-06-26T11:15:55;26.90;64.40
19232;DHT22;9750;48.730;10.294;2023-06-26T11:18:24;26.90;63.40
19232;DHT22;9750;48.730;10.294;2023-06-26T11:20:51;27.10;64.10
19232;DHT22;9750;48.730;10.294;2023-06-26T11:23:22;27.10;65.40
19232;DHT22;9750;48.730;10.294;2023-06-26T11:25:52;27.10;63.80
19232;DHT22;9750;48.730;10.294;2023-06-26T11:31:43;27.10;64.60
19232;DHT22;9750;48.730;10.294;2023-06-26T11:34:11;27.20;63.80
19232;DHT22;9750;48.730;10.294;2023-06-26T11:36:39;27.30;63.60
19232;DHT22;9750;48.730;10.294;2023-06-26T11:39:08;27.40;67.70
19232;DHT22;9750;48.730;10.294;2023-06-26T11:41:36;27.40;65.60
19232;DHT22;9750;48.730;10.294;2023-06-26T11:44:05;27.50;64.50
19232;DHT22;9750;48.730;10.294;2023-06-26T11:46:34;27.60;65.00
19232;DHT22;9750;48.730;10.294;2023-06-26T11:49:05;27.70;64.30
19232;DHT22;9750;48.730;10.294;2023-06-26T11:51:34;27.70;65.20
19232;DHT22;9750;48.730;10.294;2023-06-26T11:54:02;27.80;63.30
19232;DHT22;9750;48.730;10.294;2023-06-26T11:56:30;27.80;64.20
19232;DHT22;9750;48.730;10.294;2023-06-26T11:58:58;27.80;61.60
19232;DHT22;9750;48.730;10.294;2023-06-26T12:01:27;27.90;63.80
19232;DHT22;9750;48.730;10.294;2023-06-26T12:03:59;27.90;64.00
19232;DHT22;9750;48.730;10.294;2023-06-26T12:06:29;27.80;64.00
19232;DHT22;9750;48.730;10.294;2023-06-26T12:08:57;27.90;62.50
19232;DHT22;9750;48.730;10.294;2023-06-26T12:11:26;27.90;62.10
19232;DHT22;9750;48.730;10.294;2023-06-26T12:13:54;28.00;64.50
19232;DHT22;9750;48.730;10.294;2023-06-26T12:16:22;28.10;64.20
19232;DHT22;9750;48.730;10.294;2023-06-26T12:18:49;28.20;64.00
19232;DHT22;9750;48.730;10.294;2023-06-26T12:21:48;28.40;64.00
19232;DHT22;9750;48.730;10.294;2023-06-26T12:24:20;28.20;66.50
19232;DHT22;9750;48.730;10.294;2023-06-26T12:26:50;28.20;64.80
19232;DHT22;9750;48.730;10.294;2023-06-26T12:29:20;28.40;64.50
19232;DHT22;9750;48.730;10.294;2023-06-26T12:31:50;28.50;65.10
19232;DHT22;9750;48.730;10.294;2023-06-26T12:34:19;28.40;64.20
19232;DHT22;9750;48.730;10.294;2023-06-26T12:36:50;28.40;64.50
19232;DHT22;9750;48.730;10.294;2023-06-26T12:39:18;28.40;65.90
19232;DHT22;9750;48.730;10.294;2023-06-26T12:41:52;28.40;64.10
19232;DHT22;9750;48.730;10.294;2023-06-26T12:44:21;28.40;65.40
19232;DHT22;9750;48.730;10.294;2023-06-26T12:46:49;28.40;65.50
19232;DHT22;9750;48.730;10.294;2023-06-26T12:49:17;28.30;65.20
19232;DHT22;9750;48.730;10.294;2023-06-26T12:51:45;28.40;66.30
19232;DHT22;9750;48.730;10.294;2023-06-26T12:54:14;28.40;66.20
19232;DHT22;9750;48.730;10.294;2023-06-26T12:56:41;28.50;66.80
19232;DHT22;9750;48.730;10.294;2023-06-26T12:59:08;28.50;66.70
19232;DHT22;9750;48.730;10.294;2023-06-26T13:01:36;28.50;66.40
19232;DHT22;9750;48.730;10.294;2023-06-26T13:04:03;28.50;67.20
19232;DHT22;9750;48.730;10.294;2023-06-26T13:06:31;28.50;66.90
19232;DHT22;9750;48.730;10.294;2023-06-26T13:08:58;28.70;67.40
19232;DHT22;9750;48.730;10.294;2023-06-26T13:11:27;28.80;65.90
19232;DHT22;9750;48.730;10.294;2023-06-26T13:13:54;28.80;66.20
19232;DHT22;9750;48.730;10.294;2023-06-26T13:19:42;28.70;66.40
19232;DHT22;9750;48.730;10.294;2023-06-26T13:22:09;28.70;69.10
19232;DHT22;9750;48.730;10.294;2023-06-26T13:24:36;28.80;67.50
19232;DHT22;9750;48.730;10.294;2023-06-26T13:27:05;28.70;65.80
19232;DHT22;9750;48.730;10.294;2023-06-26T13:29:32;28.70;65.60
19232;DHT22;9750;48.730;10.294;2023-06-26T13:32:00;28.60;65.90
19232;DHT22;9750;48.730;10.294;2023-06-26T13:34:28;28.60;68.00
19232;DHT22;9750;48.730;10.294;2023-06-26T13:36:56;28.60;66.60
19232;DHT22;9750;48.730;10.294;2023-06-26T13:39:25;28.80;67.40
19232;DHT22;9750;48.730;10.294;2023-06-26T13:41:52;28.80;65.70
19232;DHT22;9750;48.730;10.294;2023-06-26T13:44:21;28.90;65.90
19232;DHT22;9750;48.730;10.294;2023-06-26T13:46:48;28.90;66.50
19232;DHT22;9750;48.730;10.294;2023-06-26T13:49:16;28.90;66.60
19232;DHT22;9750;48.730;10.294;2023-06-26T13:51:43;28.90;68.30
19232;DHT22;9750;48.730;10.294;2023-06-26T13:54:12;28.80;68.70
19232;DHT22;9750;48.730;10.294;2023-06-26T13:56:40;28.60;68.20
19232;DHT22;9750;48.730;10.294;2023-06-26T13:59:07;28.50;69.60
19232;DHT22;9750;48.730;10.294;2023-06-26T14:01:36;28.60;70.40
19232;DHT22;9750;48.730;10.294;2023-06-26T14:04:04;28.50;70.20
19232;DHT22;9750;48.730;10.294;2023-06-26T14:06:31;28.50;69.70
19232;DHT22;9750;48.730;10.294;2023-06-26T14:09:00;28.60;70.10
19232;DHT22;9750;48.730;10.294;2023-06-26T14:11:27;28.80;70.20
19232;DHT22;9750;48.730;10.294;2023-06-26T14:13:55;28.90;71.50
19232;DHT22;9750;48.730;10.294;2023-06-26T14:16:22;29.00;70.20
19232;DHT22;9750;48.730;10.294;2023-06-26T14:18:52;28.90;69.50
19232;DHT22;9750;48.730;10.294;2023-06-26T14:21:20;28.90;69.60
19232;DHT22;9750;48.730;10.294;2023-06-26T14:23:47;28.90;71.50
19232;DHT22;9750;48.730;10.294;2023-06-26T14:26:15;28.80;70.00
19232;DHT22;9750;48.730;10.294;2023-06-26T14:28:42;28.80;70.30
19232;DHT22;9750;48.730;10.294;2023-06-26T14:31:10;28.80;70.20
19232;DHT22;9750;48.730;10.294;2023-06-26T14:33:38;28.80;69.60
19232;DHT22;9750;48.730;10.294;2023-06-26T14:36:06;28.90;69.80
19232;DHT22;9750;48.730;10.294;2023-06-26T14:38:34;29.00;69.30
19232;DHT22;9750;48.730;10.294;2023-06-26T14:41:01;28.90;69.40
19232;DHT22;9750;48.730;10.294;2023-06-26T14:43:28;28.90;71.20
19232;DHT22;9750;48.730;10.294;2023-06-26T14:45:55;28.90;71.50
19232;DHT22;9750;48.730;10.294;2023-06-26T14:51:46;28.90;72.50
19232;DHT22;9750;48.730;10.294;2023-06-26T14:54:13;28.80;71.70
19232;DHT22;9750;48.730;10.294;2023-06-26T14:56:40;28.60;71.60
19232;DHT22;9750;48.730;10.294;2023-06-26T14:59:09;28.60;70.90
19232;DHT22;9750;48.730;10.294;2023-06-26T15:01:37;28.50;71.30
19232;DHT22;9750;48.730;10.294;2023-06-26T15:04:04;28.40;71.90
19232;DHT22;9750;48.730;10.294;2023-06-26T15:06:32;28.50;72.60
19232;DHT22;9750;48.730;10.294;2023-06-26T15:09:01;28.60;73.80
19232;DHT22;9750;48.730;10.294;2023-06-26T15:11:29;28.60;73.50
19232;DHT22;9750;48.730;10.294;2023-06-26T15:13:57;28.50;74.10
19232;DHT22;9750;48.730;10.294;2023-06-26T15:16:24;28.60;74.00
19232;DHT22;9750;48.730;10.294;2023-06-26T15:18:51;28.60;73.40
19232;DHT22;9750;48.730;10.294;2023-06-26T15:21:19;28.50;72.20
19232;DHT22;9750;48.730;10.294;2023-06-26T15:23:47;28.40;73.50
19232;DHT22;9750;48.730;10.294;2023-06-26T15:26:16;28.30;73.10
19232;DHT22;9750;48.730;10.294;2023-06-26T15:28:43;28.10;72.90
19232;DHT22;9750;48.730;10.294;2023-06-26T15:31:11;27.90;72.40
19232;DHT22;9750;48.730;10.294;2023-06-26T15:33:38;28.00;73.60
19232;DHT22;9750;48.730;10.294;2023-06-26T15:36:05;28.10;73.20
19232;DHT22;9750;48.730;10.294;2023-06-26T15:38:33;28.10;72.70
19232;DHT22;9750;48.730;10.294;2023-06-26T15:41:00;28.00;72.00
19232;DHT22;9750;48.730;10.294;2023-06-26T15:43:31;28.00;71.40
19232;DHT22;9750;48.730;10.294;2023-06-26T15:45:58;28.10;71.60
19232;DHT22;9750;48.730;10.294;2023-06-26T15:48:25;28.20;69.90
19232;DHT22;9750;48.730;10.294;2023-06-26T15:50:54;28.10;69.90
19232;DHT22;9750;48.730;10.294;2023-06-26T15:53:34;28.10;69.50
19232;DHT22;9750;48.730;10.294;2023-06-26T15:56:03;28.20;68.30
19232;DHT22;9750;48.730;10.294;2023-06-26T15:58:32;28.00;67.40
19232;DHT22;9750;48.730;10.294;2023-06-26T16:01:00;27.90;67.20
19232;DHT22;9750;48.730;10.294;2023-06-26T16:03:27;27.90;67.90